Time;durP1;ratioP1;P1;durP2;ratioP2;P2;SDS_P1;SDS_P2;PMS_P1;PMS_P2;Temp;Humidity;BMP_temperature;BMP_pressure;BME280_temperature;BME280_humidity;BME280_pressure;Samples;Min_cycle;Max_cycle;Signal;HPM_P1;HPM_P2
2024/01/31 00:00:29;;;;;;;8.15;1.73;;;;;;;8.97;74.50;101399.91;4935931;29;20051;-76
2024/01/31 00:02:56;;;;;;;6.15;1.70;;;;;;;8.97;74.88;101413.88;4952965;29;20051;-76
2024/01/31 00:05:22;;;;;;;3.03;1.33;;;;;;;8.96;74.73;101413.91;4935450;29;20047;-76
2024/01/31 00:07:49;;;;;;;5.72;1.30;;;;;;;8.96;74.61;101408.66;4935774;29;20139;-76
2024/01/31 00:10:16;;;;;;;4.70;1.20;;;;;;;8.93;74.17;101406.97;4953040;29;20087;-78
2024/01/31 00:12:43;;;;;;;4.68;1.10;;;;;;;8.90;73.86;101414.91;4935668;29;20082;-77
2024/01/31 00:15:09;;;;;;;4.68;1.33;;;;;;;8.88;74.03;101403.59;4952491;29;20074;-76
2024/01/31 00:17:36;;;;;;;4.32;1.17;;;;;;;8.84;73.79;101413.31;4953000;29;20091;-76
2024/01/31 00:20:03;;;;;;;2.05;1.08;;;;;;;8.82;74.03;101416.88;4952893;29;20047;-75
2024/01/31 00:22:30;;;;;;;4.38;0.90;;;;;;;8.78;73.88;101402.94;4952608;29;20416;-81
2024/01/31 00:24:56;;;;;;;6.85;1.30;;;;;;;8.77;73.84;101411.72;4952414;29;20074;-76
2024/01/31 00:27:23;;;;;;;6.85;1.33;;;;;;;8.72;73.43;101403.94;4952652;29;20063;-76
2024/01/31 00:29:50;;;;;;;4.53;0.75;;;;;;;8.68;73.40;101407.53;4952592;29;20591;-81
2024/01/31 00:32:16;;;;;;;4.55;0.95;;;;;;;8.63;73.12;101406.78;4952751;29;20047;-76
2024/01/31 00:34:43;;;;;;;2.72;0.82;;;;;;;8.58;73.10;101411.28;4952522;29;20047;-75
2024/01/31 00:37:10;;;;;;;4.45;0.98;;;;;;;8.53;72.89;101415.75;4935374;29;20449;-77
2024/01/31 00:39:37;;;;;;;3.72;0.90;;;;;;;8.48;72.97;101413.19;4952473;29;20058;-78
2024/01/31 00:42:04;;;;;;;3.13;0.88;;;;;;;8.42;72.76;101424.72;4952375;29;20059;-77
2024/01/31 00:44:30;;;;;;;3.15;0.70;;;;;;;8.36;72.70;101411.69;4952425;29;20496;-79
2024/01/31 00:46:57;;;;;;;2.92;0.90;;;;;;;8.30;72.72;101412.69;4952479;29;20086;-78
2024/01/31 00:49:23;;;;;;;4.07;0.73;;;;;;;8.27;72.78;101414.53;4952412;29;20526;-76
2024/01/31 00:51:52;;;;;;;2.60;0.65;;;;;;;8.21;72.81;101416.38;4952427;29;20047;-77
2024/01/31 00:54:20;;;;;;;4.22;0.70;;;;;;;8.15;72.85;101421.72;4952186;29;20444;-76
2024/01/31 00:56:46;;;;;;;3.67;0.55;;;;;;;8.10;72.76;101423.59;4954541;28;20055;-76
2024/01/31 00:59:13;;;;;;;2.08;0.75;;;;;;;8.04;72.78;101432.44;4939117;29;20496;-75
2024/01/31 01:01:39;;;;;;;3.53;0.73;;;;;;;8.02;73.31;101431.63;4956363;29;20051;-76
2024/01/31 01:04:09;;;;;;;3.28;0.90;;;;;;;7.98;72.98;101434.31;4938857;29;20114;-76
2024/01/31 01:09:23;;;;;;;4.07;0.77;;;;;;;7.97;73.85;101446.56;5105016;23;20093;-75
2024/01/31 01:11:49;;;;;;;1.50;0.43;;;;;;;7.98;73.70;101447.41;4976907;28;20113;-75
2024/01/31 01:14:16;;;;;;;3.60;0.82;;;;;;;7.98;73.77;101457.91;4976566;28;20054;-75
2024/01/31 01:16:45;;;;;;;2.17;0.85;;;;;;;7.98;73.81;101448.28;4976863;28;20061;-75
2024/01/31 01:19:12;;;;;;;4.70;0.75;;;;;;;8.00;73.96;101451.75;4975694;28;20054;-75
2024/01/31 01:21:39;;;;;;;1.42;0.90;;;;;;;8.02;74.20;101462.22;4975624;28;20050;-74
2024/01/31 01:24:05;;;;;;;2.83;1.00;;;;;;;8.04;73.88;101456.03;4975250;28;20090;-76
2024/01/31 01:26:32;;;;;;;1.45;0.70;;;;;;;8.06;74.33;101458.63;4975608;28;20051;-74
2024/01/31 01:28:58;;;;;;;5.57;1.25;;;;;;;8.11;74.14;101466.44;4958017;28;20098;-76
2024/01/31 01:31:25;;;;;;;3.85;0.90;;;;;;;8.10;74.38;101468.16;4975363;28;20101;-75
2024/01/31 01:33:51;;;;;;;2.80;1.05;;;;;;;8.13;73.88;101475.13;4975074;28;20494;-75
2024/01/31 01:36:18;;;;;;;3.22;1.10;;;;;;;8.12;73.70;101471.66;4975017;28;20043;-75
2024/01/31 01:38:45;;;;;;;3.08;1.00;;;;;;;8.15;74.07;101481.22;4974965;28;20097;-75
2024/01/31 01:41:11;;;;;;;4.32;0.80;;;;;;;8.16;73.69;101475.06;4975424;28;20054;-75
2024/01/31 01:43:39;;;;;;;4.88;1.10;;;;;;;8.16;73.82;101478.56;4975080;28;20664;-75
2024/01/31 01:46:24;;;;;;;3.25;0.77;;;;;;;8.13;73.60;101473.38;4974713;28;20054;-77
2024/01/31 01:48:50;;;;;;;1.40;0.68;;;;;;;8.19;73.84;101472.41;4974793;28;20055;-75
2024/01/31 01:51:20;;;;;;;2.95;0.90;;;;;;;8.18;73.91;101474.13;4957605;28;20499;-75
2024/01/31 01:53:49;;;;;;;1.58;0.73;;;;;;;8.19;73.69;101488.97;4974625;28;20058;-74
2024/01/31 01:56:19;;;;;;;3.45;0.80;;;;;;;8.17;73.75;101485.53;4974859;28;20070;-76
2024/01/31 01:58:48;;;;;;;2.05;0.77;;;;;;;8.17;73.70;101498.66;4974886;28;20054;-76
2024/01/31 02:01:16;;;;;;;5.75;0.88;;;;;;;8.17;73.67;101493.41;4974278;28;20101;-76
2024/01/31 02:03:45;;;;;;;2.72;0.90;;;;;;;8.18;74.10;101502.13;4974509;28;20062;-76
2024/01/31 02:06:13;;;;;;;4.07;1.27;;;;;;;8.18;73.77;101496.88;4974138;28;20157;-76
2024/01/31 02:08:40;;;;;;;1.48;0.73;;;;;;;8.17;73.81;101490.78;4956357;28;20047;-75
2024/01/31 02:11:07;;;;;;;3.63;1.10;;;;;;;8.16;73.89;101499.56;4974648;28;20082;-76
2024/01/31 02:13:33;;;;;;;4.47;1.45;;;;;;;8.16;73.52;101496.94;4974296;28;20086;-75
2024/01/31 02:16:00;;;;;;;2.50;1.00;;;;;;;8.16;73.53;101496.94;4957029;28;20074;-77
2024/01/31 02:18:28;;;;;;;1.50;0.75;;;;;;;8.14;73.62;101496.06;4956989;28;20154;-76
2024/01/31 02:20:55;;;;;;;1.80;0.70;;;;;;;8.13;73.54;101489.09;4974383;28;20101;-75
2024/01/31 02:23:24;;;;;;;3.63;1.08;;;;;;;8.12;73.72;101495.25;4974202;28;20046;-74
2024/01/31 02:25:51;;;;;;;4.07;0.85;;;;;;;8.10;73.54;101491.78;4973959;28;20471;-80
2024/01/31 02:28:17;;;;;;;4.03;1.08;;;;;;;8.07;73.57;101484.84;4956973;28;20058;-76
2024/01/31 02:30:44;;;;;;;3.17;1.30;;;;;;;8.07;73.63;101486.59;4974377;28;20562;-75
2024/01/31 02:33:11;;;;;;;3.00;1.10;;;;;;;8.07;73.86;101489.22;4974511;28;20054;-74
2024/01/31 02:35:37;;;;;;;3.33;1.08;;;;;;;8.05;74.18;101489.25;4974139;28;20059;-75
2024/01/31 02:38:04;;;;;;;2.65;0.95;;;;;;;8.06;74.14;101490.97;4973936;28;20113;-76
2024/01/31 02:40:31;;;;;;;3.33;1.42;;;;;;;8.08;73.95;101490.97;4974079;28;20082;-74
2024/01/31 02:42:58;;;;;;;4.28;1.20;;;;;;;8.10;73.98;101498.81;4956679;28;20053;-75
2024/01/31 02:45:27;;;;;;;2.55;0.90;;;;;;;8.10;73.77;101499.66;4973808;28;20055;-75
2024/01/31 02:47:54;;;;;;;3.80;1.58;;;;;;;8.10;74.06;101494.41;4956020;28;20135;-75
2024/01/31 02:50:21;;;;;;;4.80;1.45;;;;;;;8.11;73.96;101490.03;4973545;28;20105;-76
2024/01/31 02:52:48;;;;;;;3.97;1.50;;;;;;;8.11;73.70;101479.53;4973130;28;20058;-77
2024/01/31 02:55:15;;;;;;;4.95;1.70;;;;;;;8.10;74.09;101483.06;4973112;28;20082;-76
2024/01/31 02:57:41;;;;;;;2.05;1.17;;;;;;;8.10;73.98;101485.69;4973079;28;20050;-76
2024/01/31 03:00:11;;;;;;;5.18;1.67;;;;;;;8.09;73.67;101487.44;4973215;28;20090;-76
2024/01/31 03:02:42;;;;;;;4.70;1.45;;;;;;;8.08;73.99;101485.72;4956284;28;20142;-74
2024/01/31 03:05:12;;;;;;;3.95;1.60;;;;;;;8.09;73.93;101487.44;4972788;28;20118;-76
2024/01/31 03:07:40;;;;;;;6.32;1.73;;;;;;;8.08;73.78;101485.72;4955766;28;20443;-75
2024/01/31 03:10:07;;;;;;;2.75;1.45;;;;;;;8.06;73.51;101480.50;4972797;28;20058;-76
2024/01/31 03:12:34;;;;;;;3.08;1.52;;;;;;;8.05;73.55;101483.13;4973194;28;20105;-75
2024/01/31 03:15:00;;;;;;;4.47;1.40;;;;;;;8.03;73.79;101466.56;4972473;28;20058;-76
2024/01/31 03:17:27;;;;;;;3.80;1.52;;;;;;;8.01;73.84;101468.34;4972609;28;20055;-76
2024/01/31 03:19:54;;;;;;;4.65;1.60;;;;;;;8.00;73.55;101461.38;4955689;28;20051;-77
2024/01/31 03:22:20;;;;;;;3.05;1.20;;;;;;;8.00;73.75;101469.25;4972585;28;20514;-76
2024/01/31 03:24:47;;;;;;;3.70;1.30;;;;;;;7.98;73.74;101457.91;4972383;28;20566;-76
2024/01/31 03:27:13;;;;;;;3.63;1.30;;;;;;;7.97;73.81;101462.31;4955340;28;20050;-76
2024/01/31 03:29:42;;;;;;;2.22;1.23;;;;;;;7.97;73.70;101464.94;4972591;28;20054;-76
2024/01/31 03:32:09;;;;;;;2.90;1.13;;;;;;;7.96;74.00;101465.81;4972527;28;20578;-76
2024/01/31 03:34:35;;;;;;;4.25;1.15;;;;;;;7.94;73.86;101463.22;4972267;28;20145;-76
2024/01/31 03:37:02;;;;;;;1.83;1.10;;;;;;;7.94;73.74;101473.72;4972407;28;20211;-76
2024/01/31 03:39:29;;;;;;;4.40;1.20;;;;;;;7.94;73.86;101470.22;4972707;28;20058;-76
2024/01/31 03:41:56;;;;;;;3.05;1.10;;;;;;;7.94;74.16;101467.59;4972751;28;20086;-76
2024/01/31 03:44:22;;;;;;;4.88;1.30;;;;;;;7.94;73.87;101462.34;4971914;28;20530;-76
2024/01/31 03:46:49;;;;;;;2.95;1.08;;;;;;;7.94;74.02;101458.00;4972401;28;20109;-77
2024/01/31 03:49:15;;;;;;;2.72;0.90;;;;;;;7.95;73.70;101464.06;4972110;28;20050;-77
2024/01/31 03:51:42;;;;;;;2.53;1.20;;;;;;;7.94;73.63;101462.34;4972011;28;20085;-76
2024/01/31 03:54:08;;;;;;;2.28;1.30;;;;;;;7.95;73.59;101458.84;4972185;28;20047;-75
2024/01/31 03:56:35;;;;;;;1.65;1.23;;;;;;;7.93;73.69;101468.50;4972075;28;20051;-76
2024/01/31 03:59:03;;;;;;;2.33;1.58;;;;;;;7.90;73.76;101474.66;4972237;28;20412;-74
2024/01/31 04:01:29;;;;;;;3.85;1.73;;;;;;;7.90;73.48;101469.44;4972129;28;20050;-76
2024/01/31 04:03:56;;;;;;;4.68;1.60;;;;;;;7.88;73.69;101479.06;4971647;28;20066;-76
2024/01/31 04:06:23;;;;;;;2.55;1.83;;;;;;;7.86;73.50;101480.84;4954474;28;20069;-76
2024/01/31 04:08:50;;;;;;;3.33;1.90;;;;;;;7.84;73.77;101472.13;4954723;28;20484;-76
2024/01/31 04:11:17;;;;;;;3.47;1.83;;;;;;;7.83;73.67;101475.66;4972058;28;20050;-79
2024/01/31 04:13:44;;;;;;;3.33;2.15;;;;;;;7.81;73.85;101467.81;4971715;28;20500;-74
2024/01/31 04:16:17;;;;;;;4.65;2.72;;;;;;;7.79;73.63;101476.59;4971780;28;20567;-74
2024/01/31 04:18:44;;;;;;;4.78;2.70;;;;;;;7.79;73.79;101474.88;4954850;28;20066;-76
2024/01/31 04:21:18;;;;;;;5.80;3.00;;;;;;;7.77;73.77;101488.84;4971624;28;20046;-75
2024/01/31 04:23:44;;;;;;;4.90;2.83;;;;;;;7.77;74.04;101479.25;4971469;28;20514;-76
2024/01/31 04:26:11;;;;;;;5.28;2.97;;;;;;;7.78;74.07;101478.34;4971750;28;20047;-75
2024/01/31 04:28:37;;;;;;;5.75;3.40;;;;;;;7.78;73.94;101485.38;4971681;28;20109;-76
2024/01/31 04:31:04;;;;;;;4.05;2.95;;;;;;;7.77;73.94;101473.13;4971337;28;20058;-76
2024/01/31 04:33:31;;;;;;;9.35;3.10;;;;;;;7.77;74.21;101471.38;4971381;28;20079;-75
2024/01/31 04:35:57;;;;;;;9.63;3.20;;;;;;;7.76;74.40;101469.66;4971630;28;20471;-77
2024/01/31 04:38:24;;;;;;;5.30;3.10;;;;;;;7.77;74.02;101462.63;4971938;28;20203;-75
2024/01/31 04:40:50;;;;;;;6.68;3.85;;;;;;;7.76;73.77;101458.31;4971678;28;20082;-76
2024/01/31 04:43:17;;;;;;;4.65;3.63;;;;;;;7.76;74.36;101461.81;4971585;28;20069;-76
2024/01/31 04:45:44;;;;;;;7.97;3.42;;;;;;;7.76;74.15;101455.69;4971292;28;20543;-75
2024/01/31 04:48:10;;;;;;;7.07;2.95;;;;;;;7.76;74.02;101456.56;4971442;28;20452;-77
2024/01/31 04:50:37;;;;;;;4.85;2.78;;;;;;;7.75;74.22;101457.44;4971563;28;20149;-77
2024/01/31 04:53:04;;;;;;;5.28;2.58;;;;;;;7.75;74.29;101453.97;4954445;28;20057;-76
2024/01/31 04:55:31;;;;;;;3.85;2.75;;;;;;;7.76;74.26;101455.69;4971182;28;20053;-76
2024/01/31 04:57:58;;;;;;;4.00;2.70;;;;;;;7.76;74.29;101447.81;4954189;28;20094;-76
2024/01/31 05:00:24;;;;;;;4.88;3.28;;;;;;;7.74;74.38;101450.47;4971149;28;20074;-75
2024/01/31 05:02:51;;;;;;;4.45;3.20;;;;;;;7.76;74.45;101447.81;4954278;28;20054;-76
2024/01/31 05:05:19;;;;;;;4.53;3.03;;;;;;;7.76;74.42;101445.19;4971034;28;20496;-76
2024/01/31 05:07:46;;;;;;;4.55;2.70;;;;;;;7.76;74.20;101447.81;4971479;28;20429;-77
2024/01/31 05:10:12;;;;;;;4.05;2.30;;;;;;;7.74;74.07;101441.75;4971474;28;20063;-76
2024/01/31 05:12:39;;;;;;;5.88;2.15;;;;;;;7.72;73.97;101447.00;4954157;28;20090;-75
2024/01/31 05:15:06;;;;;;;3.88;2.03;;;;;;;7.69;73.88;101445.31;4970975;28;20137;-77
2024/01/31 05:17:33;;;;;;;3.00;2.25;;;;;;;7.66;73.76;101454.97;4954098;28;20566;-76
2024/01/31 05:19:59;;;;;;;4.75;2.40;;;;;;;7.64;74.14;101449.78;4971277;28;20156;-76
2024/01/31 05:22:26;;;;;;;3.25;2.17;;;;;;;7.64;74.12;101449.78;4971305;28;20051;-76
2024/01/31 05:24:53;;;;;;;2.80;1.92;;;;;;;7.62;74.27;101451.53;4970906;28;20059;-77
2024/01/31 05:27:19;;;;;;;5.20;2.20;;;;;;;7.62;73.99;101455.94;4953915;28;20463;-76
2024/01/31 05:29:46;;;;;;;5.35;2.50;;;;;;;7.62;74.19;101450.69;4953774;28;20086;-76
2024/01/31 05:32:13;;;;;;;5.13;2.28;;;;;;;7.61;74.28;101457.69;4971280;28;20051;-75
2024/01/31 05:34:44;;;;;;;4.10;2.25;;;;;;;7.61;74.17;101462.06;4953525;28;20567;-76
2024/01/31 05:37:10;;;;;;;4.25;2.50;;;;;;;7.60;74.10;101461.22;4971285;28;20504;-76
2024/01/31 05:39:37;;;;;;;3.80;2.20;;;;;;;7.60;74.04;101468.19;4971379;28;20055;-76
2024/01/31 05:42:03;;;;;;;4.20;2.25;;;;;;;7.58;74.08;101465.59;4971152;28;20050;-75
2024/01/31 05:44:30;;;;;;;4.30;2.63;;;;;;;7.57;74.52;101476.97;4973841;28;20090;-76
2024/01/31 05:46:56;;;;;;;6.72;2.63;;;;;;;7.57;74.65;101471.72;4974837;28;20055;-76
2024/01/31 05:49:23;;;;;;;5.15;2.08;;;;;;;7.57;74.69;101469.09;4974393;28;20460;-76
2024/01/31 05:51:51;;;;;;;6.43;2.15;;;;;;;7.56;74.31;101467.38;4974585;28;20428;-76
2024/01/31 05:54:19;;;;;;;2.13;1.70;;;;;;;7.55;74.58;101465.63;4974133;28;20055;-76
2024/01/31 05:56:45;;;;;;;3.97;2.53;;;;;;;7.55;74.34;101460.41;4974323;28;20542;-76
2024/01/31 05:59:12;;;;;;;4.65;2.33;;;;;;;7.54;74.68;101456.94;4974398;28;20055;-76
2024/01/31 06:01:38;;;;;;;6.22;2.70;;;;;;;7.55;74.35;101457.78;4974359;28;20092;-76
2024/01/31 06:04:08;;;;;;;3.53;2.42;;;;;;;7.54;74.52;101450.81;4974161;28;20137;-76
2024/01/31 06:06:35;;;;;;;6.70;2.60;;;;;;;7.53;74.48;101449.97;4957126;28;20137;-77
2024/01/31 06:09:03;;;;;;;4.30;2.13;;;;;;;7.53;74.45;101455.19;4974373;28;20206;-77
2024/01/31 06:11:30;;;;;;;6.07;2.28;;;;;;;7.53;74.42;101456.94;4974116;28;20054;-77
2024/01/31 06:13:56;;;;;;;2.92;1.85;;;;;;;7.51;74.42;101456.97;4974124;28;20047;-78
2024/01/31 06:16:23;;;;;;;3.92;2.05;;;;;;;7.50;74.72;101457.00;4974217;28;20050;-74
2024/01/31 06:18:51;;;;;;;3.15;2.47;;;;;;;7.48;74.20;101461.41;4974184;28;20141;-75
2024/01/31 06:21:19;;;;;;;5.15;2.30;;;;;;;7.45;74.11;101464.94;4974079;28;20062;-76
2024/01/31 06:23:47;;;;;;;4.53;2.25;;;;;;;7.42;74.20;101465.88;4956343;28;20051;-75
2024/01/31 06:26:14;;;;;;;4.22;1.95;;;;;;;7.40;74.42;101459.78;4974431;28;20055;-76
2024/01/31 06:28:40;;;;;;;3.38;1.70;;;;;;;7.38;74.32;101452.81;4973808;28;20550;-77
2024/01/31 06:31:14;;;;;;;2.58;1.48;;;;;;;7.37;74.12;101458.97;4974130;28;20046;-76
2024/01/31 06:33:41;;;;;;;3.50;1.50;;;;;;;7.35;74.19;101456.38;4956681;28;20047;-77
2024/01/31 06:36:10;;;;;;;1.85;1.30;;;;;;;7.34;73.95;101452.03;4974215;28;20055;-76
2024/01/31 06:38:36;;;;;;;2.55;1.30;;;;;;;7.32;73.94;101459.03;4973653;28;20122;-77
2024/01/31 06:41:03;;;;;;;2.40;1.40;;;;;;;7.31;73.98;101457.31;4974524;28;20141;-77
2024/01/31 06:43:29;;;;;;;2.95;1.40;;;;;;;7.30;73.95;101463.44;4973771;28;20117;-77
2024/01/31 06:45:56;;;;;;;2.38;1.30;;;;;;;7.30;73.48;101468.66;4973617;28;20149;-76
2024/01/31 06:48:24;;;;;;;1.67;1.30;;;;;;;7.29;73.68;101469.56;4956667;28;20074;-75
2024/01/31 06:50:51;;;;;;;3.47;1.60;;;;;;;7.28;73.61;101467.81;4973662;28;20090;-76
2024/01/31 06:53:17;;;;;;;3.25;1.42;;;;;;;7.26;73.97;101465.22;4972496;28;20139;-76
2024/01/31 06:55:44;;;;;;;4.70;1.20;;;;;;;7.25;73.51;101467.88;4955907;28;20069;-75
2024/01/31 06:58:14;;;;;;;3.35;1.20;;;;;;;7.27;73.27;101471.34;4973220;28;20141;-77
2024/01/31 07:00:41;;;;;;;1.52;1.17;;;;;;;7.27;73.11;101466.09;4973179;28;20141;-75
2024/01/31 07:03:08;;;;;;;1.88;1.10;;;;;;;7.26;73.23;101469.59;4973325;28;20061;-76
2024/01/31 07:05:34;;;;;;;1.67;1.02;;;;;;;7.25;73.30;101476.59;4973111;28;20043;-76
2024/01/31 07:08:01;;;;;;;4.80;1.40;;;;;;;7.28;73.25;101483.53;5203535;23;20058;-78
2024/01/31 07:10:28;;;;;;;3.45;1.20;;;;;;;7.28;73.39;101494.00;4973986;28;20090;-77
2024/01/31 07:12:54;;;;;;;2.38;1.45;;;;;;;7.29;73.38;101491.38;4973617;28;20504;-76
2024/01/31 07:15:21;;;;;;;1.58;1.13;;;;;;;7.32;73.52;101497.47;4956059;28;20125;-76
2024/01/31 07:17:47;;;;;;;2.25;1.33;;;;;;;7.34;73.46;101495.69;4973539;28;20133;-78
2024/01/31 07:20:15;;;;;;;2.15;1.40;;;;;;;7.35;73.23;101492.16;4973294;28;20069;-76
2024/01/31 07:22:42;;;;;;;2.92;1.30;;;;;;;7.36;72.96;101501.78;4973512;28;20133;-78
2024/01/31 07:25:13;;;;;;;3.03;1.25;;;;;;;7.35;72.34;101500.03;4955573;28;20054;-76
2024/01/31 07:27:41;;;;;;;2.88;1.13;;;;;;;7.35;72.84;101505.25;4972976;28;20059;-75
2024/01/31 07:30:11;;;;;;;2.25;1.00;;;;;;;7.34;72.82;101509.66;4972759;28;20057;-75
2024/01/31 07:32:39;;;;;;;2.17;0.90;;;;;;;7.35;72.69;101505.25;4972559;28;20082;-76
2024/01/31 07:35:09;;;;;;;1.63;1.27;;;;;;;7.35;72.49;101520.97;4972604;28;20077;-76
2024/01/31 07:37:39;;;;;;;3.47;1.27;;;;;;;7.35;72.10;101507.88;4955530;28;20109;-76
2024/01/31 07:40:11;;;;;;;1.60;1.08;;;;;;;7.33;72.02;101509.66;4972742;28;20059;-79
2024/01/31 07:42:38;;;;;;;3.92;1.25;;;;;;;7.32;72.14;101506.19;4972537;28;20385;-77
2024/01/31 07:45:05;;;;;;;1.75;1.10;;;;;;;7.31;72.52;101514.94;4954988;28;20411;-76
2024/01/31 07:47:32;;;;;;;2.30;1.23;;;;;;;7.32;72.52;101524.50;4972428;28;20086;-77
2024/01/31 07:49:58;;;;;;;0.88;0.80;;;;;;;7.32;72.44;101534.16;4972412;28;20554;-77
2024/01/31 07:52:25;;;;;;;2.92;0.90;;;;;;;7.34;72.56;101541.09;4972067;28;20057;-78
2024/01/31 07:54:51;;;;;;;2.00;1.00;;;;;;;7.37;72.88;101551.50;4971741;28;20051;-75
2024/01/31 07:57:18;;;;;;;3.55;1.10;;;;;;;7.39;72.76;101554.97;4971887;28;20097;-80
2024/01/31 07:59:44;;;;;;;1.63;0.90;;;;;;;7.42;72.67;101549.72;4971762;28;20463;-76
2024/01/31 08:02:11;;;;;;;2.10;0.95;;;;;;;7.46;72.70;101550.50;4971907;28;20062;-76
2024/01/31 08:04:38;;;;;;;1.08;0.98;;;;;;;7.48;72.54;101556.59;4971813;28;20535;-77
2024/01/31 08:07:04;;;;;;;2.03;1.00;;;;;;;7.50;72.40;101565.31;4971469;28;20156;-77
2024/01/31 08:09:31;;;;;;;1.98;0.80;;;;;;;7.52;72.52;101568.75;4971815;28;20134;-79
2024/01/31 08:11:57;;;;;;;2.40;1.00;;;;;;;7.55;72.55;101562.59;4972054;28;20142;-76
2024/01/31 08:14:24;;;;;;;1.30;0.98;;;;;;;7.56;72.43;101570.44;4972089;28;20146;-76
2024/01/31 08:16:51;;;;;;;3.08;0.90;;;;;;;7.58;72.18;101566.94;4972281;28;20050;-77
2024/01/31 08:19:18;;;;;;;2.90;1.00;;;;;;;7.60;72.04;101575.66;4971966;28;20119;-76
2024/01/31 08:21:44;;;;;;;1.88;1.13;;;;;;;7.60;72.17;101571.28;4971958;28;20572;-77
2024/01/31 08:24:11;;;;;;;2.78;0.98;;;;;;;7.62;72.14;101574.72;4971752;28;20054;-76
2024/01/31 08:26:37;;;;;;;2.05;0.82;;;;;;;7.64;72.33;101575.59;4971986;28;20086;-77
2024/01/31 08:29:04;;;;;;;4.32;1.20;;;;;;;7.65;72.04;101576.44;4971965;28;20146;-78
2024/01/31 08:31:45;;;;;;;2.72;1.30;;;;;;;7.65;71.96;101585.19;4956846;28;20510;-76
2024/01/31 08:34:12;;;;;;;2.83;1.00;;;;;;;7.66;72.28;101593.88;4971554;28;20515;-80
2024/01/31 08:36:39;;;;;;;1.40;0.88;;;;;;;7.67;72.08;101599.09;4971767;28;20055;-79
2024/01/31 08:39:08;;;;;;;1.80;1.20;;;;;;;7.68;71.55;101599.97;4954606;28;20101;-76
2024/01/31 08:41:34;;;;;;;3.08;1.10;;;;;;;7.68;71.44;101608.72;4971660;28;20086;-78
2024/01/31 08:44:01;;;;;;;5.43;1.20;;;;;;;7.68;71.62;101595.63;4954461;28;20133;-78
2024/01/31 08:46:28;;;;;;;3.33;1.10;;;;;;;7.67;71.35;101590.41;4971882;28;20128;-78
2024/01/31 08:48:54;;;;;;;2.20;1.33;;;;;;;7.68;71.59;101587.75;4954567;28;20098;-77
2024/01/31 08:51:21;;;;;;;2.00;1.30;;;;;;;7.69;71.49;101578.13;4971855;28;20653;-77
2024/01/31 08:53:47;;;;;;;3.15;1.23;;;;;;;7.69;71.50;101576.38;4954124;28;20690;-77
2024/01/31 08:56:14;;;;;;;4.60;1.30;;;;;;;7.71;71.39;101565.00;4954365;28;20055;-77
2024/01/31 08:58:41;;;;;;;1.85;1.48;;;;;;;7.71;71.29;101555.38;4971738;28;20057;-77
2024/01/31 09:01:08;;;;;;;3.65;1.23;;;;;;;7.69;71.55;101558.03;4954524;28;20063;-78
2024/01/31 09:03:34;;;;;;;2.50;1.45;;;;;;;7.71;71.19;101565.88;4954269;28;20478;-77
2024/01/31 09:06:01;;;;;;;3.40;1.55;;;;;;;7.72;71.24;101562.34;4971580;28;20501;-76
2024/01/31 09:08:28;;;;;;;2.83;1.50;;;;;;;7.72;71.27;101557.09;4971254;28;20507;-77
2024/01/31 09:10:55;;;;;;;3.10;1.60;;;;;;;7.74;71.23;101559.72;4971558;28;20559;-78
2024/01/31 09:13:24;;;;;;;4.68;1.98;;;;;;;7.74;70.89;101549.22;4971597;28;20087;-77
2024/01/31 09:15:51;;;;;;;3.50;1.50;;;;;;;7.74;71.17;101536.97;4954100;28;20090;-77
2024/01/31 09:18:17;;;;;;;2.45;1.70;;;;;;;7.77;71.17;101543.91;4974513;28;20046;-77
2024/01/31 09:20:44;;;;;;;3.70;1.50;;;;;;;7.78;70.91;101533.41;4975036;28;20137;-77
2024/01/31 09:23:11;;;;;;;2.63;2.15;;;;;;;7.79;71.25;101534.28;4975140;28;20057;-76
2024/01/31 09:25:37;;;;;;;2.72;1.40;;;;;;;7.80;70.85;101538.63;4975008;28;20138;-80
2024/01/31 09:28:04;;;;;;;4.13;1.75;;;;;;;7.80;71.09;101538.63;4975164;28;20472;-76
2024/01/31 09:30:30;;;;;;;3.92;1.98;;;;;;;7.80;71.13;101542.13;4974973;28;20059;-75
2024/01/31 09:32:57;;;;;;;3.38;1.45;;;;;;;7.80;70.70;101550.00;4974952;28;20134;-76
2024/01/31 09:35:23;;;;;;;2.15;1.52;;;;;;;7.80;70.98;101539.50;4974670;28;20051;-76
2024/01/31 09:37:50;;;;;;;3.58;1.75;;;;;;;7.84;71.08;101548.16;4974685;28;20082;-77
2024/01/31 09:40:19;;;;;;;4.55;1.70;;;;;;;7.83;70.96;101543.81;4957856;28;20121;-77
2024/01/31 09:42:46;;;;;;;3.75;1.83;;;;;;;7.84;70.77;101555.19;4974935;28;20051;-77
2024/01/31 09:45:14;;;;;;;3.88;2.22;;;;;;;7.84;70.32;101547.31;4974487;28;20113;-77
2024/01/31 09:47:45;;;;;;;4.05;2.03;;;;;;;7.83;70.42;101541.19;4974700;28;20464;-78
2024/01/31 09:50:12;;;;;;;3.80;1.98;;;;;;;7.84;70.40;101532.44;4974407;28;20047;-77
2024/01/31 09:52:40;;;;;;;3.08;2.03;;;;;;;7.84;70.71;101529.81;4974738;28;20046;-77
2024/01/31 09:55:11;;;;;;;5.15;2.05;;;;;;;7.85;70.24;101525.44;4957285;28;20086;-78
2024/01/31 09:57:39;;;;;;;5.57;2.08;;;;;;;7.89;70.96;101516.66;4974576;28;20078;-77
2024/01/31 10:00:07;;;;;;;7.53;2.60;;;;;;;7.92;70.56;101512.19;4974499;28;20144;-78
2024/01/31 10:02:36;;;;;;;5.57;2.22;;;;;;;7.94;70.34;101509.56;4974272;28;20142;-77
2024/01/31 10:05:06;;;;;;;5.57;2.40;;;;;;;7.97;70.58;101512.13;4974371;28;20050;-77
2024/01/31 10:07:36;;;;;;;6.10;2.70;;;;;;;7.99;70.74;101512.13;4974494;28;20057;-77
2024/01/31 10:10:03;;;;;;;5.53;2.90;;;;;;;8.01;70.77;101512.94;4974462;28;20053;-77
2024/01/31 10:12:30;;;;;;;3.03;1.65;;;;;;;8.02;70.97;101517.28;4957042;28;20061;-79
2024/01/31 10:14:56;;;;;;;7.45;2.22;;;;;;;8.04;70.56;101515.50;4974182;28;20065;-76
2024/01/31 10:17:26;;;;;;;3.13;1.77;;;;;;;8.05;70.69;101512.88;4974375;28;20531;-77
2024/01/31 10:19:53;;;;;;;3.90;1.90;;;;;;;8.07;70.59;101504.94;4974279;28;20097;-75
2024/01/31 10:22:22;;;;;;;3.45;2.05;;;;;;;8.11;70.54;101511.00;4974138;28;20054;-77
2024/01/31 10:24:50;;;;;;;5.93;1.80;;;;;;;8.14;70.45;101495.19;4973752;28;20055;-76
2024/01/31 10:27:21;;;;;;;4.60;1.67;;;;;;;8.16;70.37;101504.81;4974156;28;20055;-77
2024/01/31 10:29:48;;;;;;;2.65;1.77;;;;;;;8.18;70.08;101495.13;4956182;28;20105;-76
2024/01/31 10:32:15;;;;;;;5.00;1.90;;;;;;;8.19;70.30;101488.13;4956873;28;20051;-78
2024/01/31 10:34:43;;;;;;;3.28;1.75;;;;;;;8.19;70.10;101482.88;4956696;28;20443;-75
2024/01/31 10:37:31;;;;;;;3.22;1.77;;;;;;;8.21;70.42;101479.34;4974207;28;20059;-76
2024/01/31 10:40:19;;;;;;;4.57;1.70;;;;;;;8.24;70.44;101478.41;4973914;28;20089;-76
2024/01/31 10:42:46;;;;;;;3.15;1.63;;;;;;;8.26;70.37;101476.59;4956905;28;20047;-76
2024/01/31 10:45:13;;;;;;;4.82;1.58;;;;;;;8.27;69.84;101472.25;4973573;28;20097;-77
2024/01/31 10:47:42;;;;;;;4.60;2.08;;;;;;;8.29;70.07;101467.81;4974085;28;20054;-76
2024/01/31 10:50:09;;;;;;;3.85;1.90;;;;;;;8.31;70.29;101460.78;4956425;28;20055;-76
2024/01/31 10:52:38;;;;;;;2.50;1.60;;;;;;;8.31;70.08;101469.53;4973505;28;20559;-76
2024/01/31 10:55:05;;;;;;;6.80;2.10;;;;;;;8.34;69.94;101473.84;4973374;28;20062;-77
2024/01/31 10:57:37;;;;;;;5.22;1.90;;;;;;;8.35;70.07;101471.16;4973575;28;20082;-77
2024/01/31 11:00:09;;;;;;;3.60;2.13;;;;;;;8.35;68.58;101476.41;4973310;28;20497;-75
2024/01/31 11:02:35;;;;;;;5.25;2.13;;;;;;;8.37;69.52;101465.06;4973419;28;20055;-78
2024/01/31 11:05:06;;;;;;;5.57;2.20;;;;;;;8.36;69.37;101469.44;4972935;28;20133;-76
2024/01/31 11:07:43;;;;;;;5.70;2.05;;;;;;;8.33;68.45;101472.09;4973453;28;20043;-76
2024/01/31 11:10:23;;;;;;;4.63;2.60;;;;;;;8.34;69.22;101464.19;4956082;28;20050;-77
2024/01/31 11:12:57;;;;;;;4.25;2.47;;;;;;;8.32;68.66;101463.38;4973306;28;20054;-77
2024/01/31 11:15:32;;;;;;;3.55;2.38;;;;;;;8.33;68.31;101461.59;4955463;28;20600;-79
2024/01/31 11:18:05;;;;;;;3.45;2.90;;;;;;;8.33;68.60;101465.09;4956005;28;20089;-76
2024/01/31 11:20:36;;;;;;;5.28;3.13;;;;;;;8.37;69.49;101465.91;4973051;28;20059;-75
2024/01/31 11:23:03;;;;;;;4.30;2.97;;;;;;;8.41;69.96;101466.72;4973032;28;20054;-77
2024/01/31 11:25:36;;;;;;;4.82;2.90;;;;;;;8.42;68.47;101452.69;4972646;28;20062;-78
2024/01/31 11:28:06;;;;;;;5.63;2.90;;;;;;;8.45;68.67;101448.25;4955869;28;20109;-77
2024/01/31 11:30:33;;;;;;;5.05;3.30;;;;;;;8.46;69.52;101439.47;4972981;28;20050;-78
2024/01/31 11:33:03;;;;;;;3.92;2.88;;;;;;;8.45;68.57;101429.88;4972831;28;20484;-77
2024/01/31 11:35:30;;;;;;;3.58;3.13;;;;;;;8.50;69.29;101421.03;4972453;28;20046;-78
2024/01/31 11:38:01;;;;;;;4.07;3.33;;;;;;;8.51;69.54;101414.88;4972503;28;20057;-78